Blaney Park, Michigan
Current Conditions -  °F | °C
As of 12:35 AM on Tuesday 27 Jan 2015 (Local Time) from KISQ Reporting Station
Light Snow Light Snow  
Wind Chill:   Ceiling: 3700
Heat Index: 19°   Visibility: 5mi
Dew Point: 16°   Wind: 7mph
Humidity: 89%   Direction: 90°E
Pressure: 30.05"   Gusts: NA
Location:  46.2466°N, 85.928°W
Report Text: KISQ 270535Z AUTO 09006KT 5SM -SN SCT028 OVC037 M07/M09 A3005 RMK AO2 T10751090
Loading
Personal Weather Stations






























Interactive Weather Map New forecast layout! Learn more

10-Day Weather Forecast

Advertisements
Track Severe Weather on mobile